createdAt,value
2023-05-14T00:07:02.505Z,101048.31
2023-05-14T00:13:50.648Z,101052.56
2023-05-14T00:17:08.255Z,101043.91
2023-05-14T00:23:39.616Z,101047.47
2023-05-14T00:26:54.195Z,101044.06
2023-05-14T00:30:18.826Z,101043.19
2023-05-14T00:37:19.721Z,101035.56
2023-05-14T00:43:54.754Z,101037.22
2023-05-14T00:47:14.035Z,101044.09
2023-05-14T00:50:18.863Z,101043.34
2023-05-14T00:53:40.046Z,101039.84
2023-05-14T00:56:31.134Z,101028.63
2023-05-14T00:59:19.916Z,101035.53
2023-05-14T01:02:30.966Z,101038.16
2023-05-14T01:05:20.090Z,101032.13
2023-05-14T01:08:21.771Z,101039.91
2023-05-14T01:11:21.597Z,101032.09
2023-05-14T01:14:24.455Z,101035.56
2023-05-14T01:17:12.864Z,101028.66
2023-05-14T01:20:02.882Z,101033.84
2023-05-14T01:22:48.745Z,101025.22
2023-05-14T01:25:38.268Z,101032.19
2023-05-14T01:28:28.110Z,101023.59
2023-05-14T01:31:35.419Z,101030.56
2023-05-14T01:34:18.061Z,101032.38
2023-05-14T01:37:04.546Z,101032.41
2023-05-14T01:39:48.014Z,101030.63
2023-05-14T01:42:23.556Z,101021.94
2023-05-14T01:45:03.749Z,101020.25
2023-05-14T01:47:55.270Z,101016.81
2023-05-14T01:50:46.642Z,101019.38
2023-05-14T01:53:34.478Z,101021.09
2023-05-14T01:56:27.261Z,101018.47
2023-05-14T01:59:31.815Z,101006.38
2023-05-14T02:02:36.689Z,101008.09
2023-05-14T02:05:57.864Z,101006.41
2023-05-14T02:09:07.265Z,101008.19
2023-05-14T02:12:12.053Z,101006.53
2023-05-14T02:14:46.999Z,101000.50
2023-05-14T02:17:42.280Z,101006.53
2023-05-14T02:20:24.907Z,100994.41
2023-05-14T02:23:41.653Z,101001.28
2023-05-14T02:26:36.679Z,101002.97
2023-05-14T02:29:48.792Z,101004.69
2023-05-14T02:32:40.325Z,100996.03
2023-05-14T02:35:31.131Z,100992.53
2023-05-14T02:38:10.865Z,100986.47
2023-05-14T02:40:59.871Z,100987.38
2023-05-14T02:43:47.708Z,100987.47
2023-05-14T02:46:39.986Z,100982.28
2023-05-14T02:49:14.835Z,100985.75
2023-05-14T02:51:47.351Z,100990.06
2023-05-14T02:54:38.682Z,100992.66
2023-05-14T02:57:24.577Z,100975.44
2023-05-14T03:00:12.445Z,100977.22
2023-05-14T03:02:59.814Z,100966.88
2023-05-14T03:06:00.853Z,100973.72
2023-05-14T03:09:09.641Z,100977.19
2023-05-14T03:12:27.288Z,100980.69
2023-05-14T03:22:19.556Z,100996.31
2023-05-14T03:24:54.542Z,100986.84
2023-05-14T03:27:21.637Z,100991.16
2023-05-14T03:29:48.829Z,100979.06
2023-05-14T03:32:15.895Z,100989.41
2023-05-14T03:34:44.914Z,100992.84
2023-05-14T03:37:12.255Z,100982.47
2023-05-14T03:39:39.380Z,100979.91
2023-05-14T03:42:06.785Z,100982.41
2023-05-14T03:44:33.788Z,100992.75
2023-05-14T03:47:00.762Z,100975.44
2023-05-14T03:49:28.160Z,100979.72
2023-05-14T03:51:56.195Z,100983.13
2023-05-14T03:54:23.269Z,100973.56
2023-05-14T03:56:50.386Z,100979.59
2023-05-14T03:59:17.485Z,100982.13
2023-05-14T04:01:44.813Z,100980.34
2023-05-14T04:04:12.082Z,100982.03
2023-05-14T04:06:39.259Z,100983.78
2023-05-14T04:09:06.521Z,100976.84
2023-05-14T04:11:33.544Z,100969.03
2023-05-14T04:14:00.568Z,100971.59
2023-05-14T04:16:27.631Z,100962.13
2023-05-14T04:18:54.818Z,100972.50
2023-05-14T04:21:21.867Z,100980.22
2023-05-14T04:23:49.015Z,100979.34
2023-05-14T04:26:16.207Z,100972.47
2023-05-14T04:28:43.314Z,100976.72
2023-05-14T04:31:10.646Z,100978.41
2023-05-14T04:33:37.668Z,100980.06
2023-05-14T04:36:05.954Z,100975.63
2023-05-14T04:38:33.117Z,100972.97
2023-05-14T04:41:00.390Z,100962.50
2023-05-14T04:43:27.431Z,100970.06
2023-05-14T04:45:54.691Z,100964.72
2023-05-14T04:48:21.998Z,100965.44
2023-05-14T04:50:49.061Z,100956.66
2023-05-14T04:53:16.120Z,100958.41
2023-05-14T04:55:43.202Z,100950.56
2023-05-14T04:58:10.252Z,100953.09
2023-05-14T05:00:37.723Z,100951.28
2023-05-14T05:03:04.888Z,100949.53
2023-05-14T05:05:32.030Z,100949.56
2023-05-14T05:07:59.179Z,100949.50
2023-05-14T05:10:26.702Z,100952.94
2023-05-14T05:12:54.087Z,100951.19
2023-05-14T05:15:21.130Z,100944.13
2023-05-14T05:17:48.380Z,100946.59
2023-05-14T05:20:15.758Z,100943.03
2023-05-14T05:22:42.869Z,100941.25
2023-05-14T05:25:09.980Z,100938.56
2023-05-14T05:27:37.069Z,100949.78
2023-05-14T05:30:04.697Z,100944.56
2023-05-14T05:32:31.921Z,100948.88
2023-05-14T05:34:59.016Z,100941.91
2023-05-14T05:37:26.196Z,100949.63
2023-05-14T05:39:54.246Z,100950.44
2023-05-14T05:42:21.338Z,100953.84
2023-05-14T05:44:48.590Z,100944.22
2023-05-14T05:47:16.087Z,100944.97
2023-05-14T05:49:43.252Z,100946.59
2023-05-14T05:52:10.580Z,100938.59
2023-05-14T05:54:39.965Z,100930.41
2023-05-14T05:57:07.359Z,100941.31
2023-05-14T05:59:34.698Z,100940.03
2023-05-14T06:02:01.908Z,100931.91
2023-05-14T06:04:29.081Z,100925.59
2023-05-14T06:06:56.211Z,100938.31
2023-05-14T06:09:23.381Z,100928.53
2023-05-14T06:11:50.578Z,100930.00
2023-05-14T06:14:17.824Z,100933.16
2023-05-14T06:16:45.147Z,100931.84
2023-05-14T06:19:12.473Z,100925.38
2023-05-14T06:21:39.944Z,100924.91
2023-05-14T06:24:07.610Z,100917.56
2023-05-14T06:26:34.617Z,100916.25
2023-05-14T06:29:01.847Z,100916.81
2023-05-14T06:31:29.061Z,100921.13
2023-05-14T06:33:56.324Z,100907.59
2023-05-14T06:36:23.397Z,100905.78
2023-05-14T06:38:50.652Z,100908.06
2023-05-14T06:41:18.267Z,100902.41
2023-05-14T06:43:45.291Z,100904.34
2023-05-14T06:46:12.383Z,100899.22
2023-05-14T06:48:39.481Z,100900.22
2023-05-14T06:51:06.743Z,100901.31
2023-05-14T06:53:33.880Z,100905.94
2023-05-14T06:56:00.961Z,100905.44
2023-05-14T06:58:28.113Z,100909.03
2023-05-14T07:00:55.248Z,100896.38
2023-05-14T07:03:22.740Z,100915.75
2023-05-14T07:05:50.034Z,100909.38
2023-05-14T07:08:17.131Z,100893.13
2023-05-14T07:10:44.243Z,100895.50
2023-05-14T07:13:11.387Z,100891.97
2023-05-14T07:15:38.607Z,100892.22
2023-05-14T07:18:05.946Z,100882.75
2023-05-14T07:20:33.081Z,100887.03
2023-05-14T07:23:00.238Z,100884.25
2023-05-14T07:25:27.524Z,100874.59
2023-05-14T07:27:54.615Z,100879.34
2023-05-14T07:30:22.073Z,100877.84
2023-05-14T07:32:49.302Z,100871.94
2023-05-14T07:35:16.685Z,100868.13
2023-05-14T07:37:43.853Z,100866.00
2023-05-14T07:40:11.277Z,100857.63
2023-05-14T07:42:38.350Z,100865.78
2023-05-14T07:45:05.881Z,100861.69
2023-05-14T07:47:33.301Z,100855.72
2023-05-14T07:50:00.641Z,100850.16
2023-05-14T07:52:27.871Z,100854.84
2023-05-14T07:54:55.384Z,100847.44
2023-05-14T07:57:22.936Z,100850.69
2023-05-14T07:59:50.358Z,100844.03
2023-05-14T08:02:17.914Z,100848.84
2023-05-14T08:04:45.475Z,100841.88
2023-05-14T08:07:12.642Z,100848.69
2023-05-14T08:09:40.196Z,100842.88
2023-05-14T08:12:07.847Z,100844.00
2023-05-14T08:14:35.024Z,100836.09
2023-05-14T08:17:02.295Z,100827.06
2023-05-14T08:19:29.445Z,100823.38
2023-05-14T08:21:56.761Z,100822.88
2023-05-14T08:24:23.864Z,100810.03
2023-05-14T08:26:51.070Z,100814.59
2023-05-14T08:29:18.220Z,100813.50
2023-05-14T08:31:45.334Z,100814.97
2023-05-14T08:34:12.510Z,100808.59
2023-05-14T08:36:40.061Z,100814.34
2023-05-14T08:39:10.196Z,100811.19
2023-05-14T08:41:38.031Z,100797.50
2023-05-14T08:44:13.544Z,100808.97
2023-05-14T08:46:41.340Z,100801.84
2023-05-14T08:49:30.234Z,100802.19
2023-05-14T08:51:58.031Z,100809.50
2023-05-14T08:54:27.279Z,100798.81
2023-05-14T08:56:54.751Z,100797.97
2023-05-14T08:59:22.170Z,100788.75
2023-05-14T09:01:53.081Z,100785.19
2023-05-14T09:04:22.470Z,100787.63
2023-05-14T09:06:51.326Z,100788.06
2023-05-14T09:09:18.830Z,100786.00
2023-05-14T09:11:50.930Z,100789.06
2023-05-14T09:14:18.268Z,100782.44
2023-05-14T09:16:47.179Z,100787.13
2023-05-14T09:19:15.985Z,100783.06
2023-05-14T09:21:45.631Z,100781.50
2023-05-14T09:24:24.190Z,100773.13
2023-05-14T09:26:53.693Z,100779.03
2023-05-14T09:29:21.166Z,100780.09
2023-05-14T09:31:51.555Z,100784.06
2023-05-14T09:34:26.255Z,100774.50
2023-05-14T09:37:07.673Z,100768.44
2023-05-14T09:39:39.466Z,100748.19
2023-05-14T09:42:06.921Z,100753.94
2023-05-14T09:44:36.497Z,100753.84
2023-05-14T09:47:04.520Z,100749.31
2023-05-14T09:49:31.666Z,100750.53
2023-05-14T09:51:58.746Z,100749.09
2023-05-14T09:54:26.707Z,100746.00
2023-05-14T09:56:55.624Z,100739.22
2023-05-14T09:59:23.030Z,100746.38
2023-05-14T10:01:51.404Z,100727.09
2023-05-14T10:04:19.217Z,100732.94
2023-05-14T10:06:49.985Z,100745.22
2023-05-14T10:09:19.949Z,100736.53
2023-05-14T10:11:52.869Z,100713.94
2023-05-14T10:14:36.314Z,100720.84
2023-05-14T10:17:05.121Z,100712.75
2023-05-14T10:19:35.619Z,100704.59
2023-05-14T10:22:07.234Z,100703.28
2023-05-14T10:24:34.900Z,100706.31
2023-05-14T10:27:02.557Z,100703.38
2023-05-14T10:29:37.796Z,100693.63
2023-05-14T10:32:07.440Z,100693.81
2023-05-14T10:34:55.861Z,100700.59
2023-05-14T10:37:26.794Z,100693.22
2023-05-14T10:40:03.255Z,100698.56
2023-05-14T10:42:43.486Z,100693.63
2023-05-14T10:45:12.032Z,100689.50
2023-05-14T10:47:41.059Z,100687.13
2023-05-14T10:50:11.222Z,100690.03
2023-05-14T10:52:38.611Z,100681.28
2023-05-14T10:55:07.945Z,100680.38
2023-05-14T10:57:38.503Z,100675.00
2023-05-14T11:00:10.952Z,100665.00
2023-05-14T11:02:39.815Z,100670.75
2023-05-14T11:05:14.363Z,100660.31
2023-05-14T11:07:49.649Z,100652.41
2023-05-14T11:10:19.292Z,100649.78
2023-05-14T11:12:48.598Z,100638.47
2023-05-14T11:15:21.544Z,100646.97
2023-05-14T11:17:50.596Z,100633.19
2023-05-14T11:20:18.940Z,100630.34
2023-05-14T11:22:48.426Z,100626.13
2023-05-14T11:25:15.929Z,100631.47
2023-05-14T11:27:47.814Z,100630.63
2023-05-14T11:30:20.026Z,100620.91
2023-05-14T11:32:48.584Z,100619.09
2023-05-14T11:35:17.246Z,100618.59
2023-05-14T11:37:51.243Z,100617.88
2023-05-14T11:40:19.231Z,100622.28
2023-05-14T11:42:46.442Z,100605.19
2023-05-14T11:45:14.863Z,100614.97
2023-05-14T11:47:42.952Z,100617.34
2023-05-14T11:50:11.359Z,100610.44
2023-05-14T11:52:41.256Z,100611.53
2023-05-14T11:55:12.910Z,100609.69
2023-05-14T11:57:41.359Z,100609.69
2023-05-14T12:00:13.667Z,100602.84
2023-05-14T12:02:41.240Z,100601.50
2023-05-14T12:05:09.384Z,100602.59
2023-05-14T12:07:36.570Z,100602.69
2023-05-14T12:10:04.342Z,100603.09
2023-05-14T12:12:36.614Z,100582.00
2023-05-14T12:15:14.433Z,100573.97
2023-05-14T12:17:41.811Z,100585.53
2023-05-14T12:20:13.801Z,100581.44
2023-05-14T12:22:42.516Z,100591.09
2023-05-14T12:25:13.945Z,100576.25
2023-05-14T12:27:41.920Z,100583.38
2023-05-14T12:32:41.271Z,100572.09
2023-05-14T12:35:09.244Z,100578.38
2023-05-14T12:37:37.820Z,100568.84
2023-05-14T12:40:09.377Z,100573.94
2023-05-14T12:42:37.199Z,100568.53
2023-05-14T12:45:07.436Z,100557.81
2023-05-14T12:47:34.769Z,100557.81
2023-05-14T12:50:02.381Z,100552.25
2023-05-14T12:54:59.882Z,100550.50
2023-05-14T12:57:27.976Z,100546.31
2023-05-14T12:59:56.277Z,100546.03
2023-05-14T13:02:23.426Z,100543.66
2023-05-14T13:04:50.559Z,100541.56
2023-05-14T13:07:17.582Z,100517.50
2023-05-14T13:09:44.680Z,100529.72
2023-05-14T13:12:11.855Z,100522.75
2023-05-14T13:14:38.956Z,100515.34
2023-05-14T13:17:08.206Z,100515.13
2023-05-14T13:19:36.365Z,100518.53
2023-05-14T13:22:03.816Z,100511.38
2023-05-14T13:24:31.031Z,100511.38
2023-05-14T13:26:58.419Z,100512.41
2023-05-14T13:29:25.518Z,100513.91
2023-05-14T13:31:53.428Z,100507.78
2023-05-14T13:34:20.499Z,100523.09
2023-05-14T13:36:49.499Z,100506.75
2023-05-14T13:39:16.724Z,100502.59
2023-05-14T13:41:43.881Z,100502.03
2023-05-14T13:44:10.995Z,100491.31
2023-05-14T13:46:38.268Z,100477.53
2023-05-14T13:49:05.654Z,100485.19
2023-05-14T13:51:32.861Z,100475.28
2023-05-14T13:54:00.283Z,100476.78
2023-05-14T13:56:27.433Z,100464.41
2023-05-14T13:58:54.683Z,100471.50
2023-05-14T14:01:23.648Z,100473.75
2023-05-14T14:03:50.947Z,100464.41
2023-05-14T14:06:18.739Z,100467.81
2023-05-14T14:08:46.053Z,100469.97
2023-05-14T14:11:13.979Z,100474.13
2023-05-14T14:13:42.590Z,100477.53
2023-05-14T14:16:10.905Z,100471.59
2023-05-14T14:18:38.307Z,100469.56
2023-05-14T14:21:05.368Z,100455.25
2023-05-14T14:23:32.582Z,100460.53
2023-05-14T14:26:01.133Z,100454.81
2023-05-14T14:28:28.162Z,100455.09
2023-05-14T14:30:55.515Z,100461.38
2023-05-14T14:33:22.657Z,100456.56
2023-05-14T14:35:49.761Z,100456.13
2023-05-14T14:38:16.871Z,100452.47
2023-05-14T14:40:44.040Z,100461.03
2023-05-14T14:43:11.223Z,100458.56
2023-05-14T14:45:38.580Z,100452.00
2023-05-14T14:48:34.527Z,100449.63
2023-05-14T14:51:01.843Z,100439.31
2023-05-14T14:53:29.927Z,100447.44
2023-05-14T14:55:57.857Z,100433.78
2023-05-14T14:58:25.076Z,100440.03
2023-05-14T15:00:54.864Z,100444.84
2023-05-14T15:03:23.439Z,100444.00
2023-05-14T15:05:52.501Z,100439.88
2023-05-14T15:08:21.210Z,100444.44
2023-05-14T15:10:48.711Z,100440.19
2023-05-14T15:13:16.000Z,100438.66
2023-05-14T15:15:43.623Z,100425.66
2023-05-14T15:18:11.120Z,100433.22
2023-05-14T15:20:38.250Z,100427.28
2023-05-14T15:23:05.462Z,100427.66
2023-05-14T15:25:33.263Z,100421.94
2023-05-14T15:28:00.962Z,100420.22
2023-05-14T15:30:28.492Z,100417.00
2023-05-14T15:32:56.044Z,100422.25
2023-05-14T15:35:24.588Z,100421.47
2023-05-14T15:37:52.287Z,100422.38
2023-05-14T15:40:19.825Z,100417.28
2023-05-14T15:42:47.194Z,100413.03
2023-05-14T15:45:14.697Z,100414.03
2023-05-14T15:47:42.007Z,100412.34
2023-05-14T15:50:09.384Z,100406.41
2023-05-14T15:52:36.754Z,100415.19
2023-05-14T15:55:06.299Z,100401.28
2023-05-14T15:57:33.683Z,100409.25
2023-05-14T16:00:00.768Z,100398.72
2023-05-14T16:02:30.684Z,100389.06
2023-05-14T16:04:57.913Z,100390.06
2023-05-14T16:07:25.104Z,100383.09
2023-05-14T16:09:52.274Z,100380.47
2023-05-14T16:12:19.412Z,100379.69
2023-05-14T16:14:46.701Z,100390.06
2023-05-14T16:17:14.070Z,100384.78
2023-05-14T16:19:41.566Z,100389.38
2023-05-14T16:22:08.726Z,100382.53
2023-05-14T16:24:36.478Z,100382.53
2023-05-14T16:27:04.259Z,100381.69
2023-05-14T16:29:32.431Z,100376.44
2023-05-14T16:32:00.324Z,100375.59
2023-05-14T16:34:28.365Z,100369.50
2023-05-14T16:36:55.599Z,100365.94
2023-05-14T16:39:23.316Z,100358.03
2023-05-14T16:41:53.251Z,100358.97
2023-05-14T16:44:21.807Z,100362.56
2023-05-14T16:46:49.223Z,100360.84
2023-05-14T16:49:17.112Z,100365.31
2023-05-14T16:51:44.998Z,100357.56
2023-05-14T16:54:12.272Z,100358.56
2023-05-14T16:56:39.504Z,100349.22
2023-05-14T16:59:07.737Z,100349.34
2023-05-14T17:01:35.552Z,100354.59
2023-05-14T17:04:02.838Z,100356.44
2023-05-14T17:06:29.998Z,100345.19
2023-05-14T17:08:57.049Z,100343.56
2023-05-14T17:11:24.150Z,100348.97
2023-05-14T17:13:51.402Z,100345.56
2023-05-14T17:16:19.974Z,100349.97
2023-05-14T17:18:47.343Z,100346.56
2023-05-14T17:21:14.617Z,100355.34
2023-05-14T17:23:42.704Z,100355.50
2023-05-14T17:26:11.295Z,100348.84
2023-05-14T17:28:38.365Z,100346.28
2023-05-14T17:31:05.659Z,100361.06
2023-05-14T17:33:32.837Z,100352.69
2023-05-14T17:36:00.569Z,100355.53
2023-05-14T17:38:27.667Z,100360.09
2023-05-14T17:40:54.854Z,100355.19
2023-05-14T17:43:21.966Z,100357.13
2023-05-14T17:48:20.087Z,100360.78
2023-05-14T17:50:47.327Z,100355.84
2023-05-14T17:53:14.695Z,100356.00
2023-05-14T17:55:43.933Z,100359.56
2023-05-14T17:58:13.776Z,100354.41
2023-05-14T18:00:41.768Z,100349.44
2023-05-14T18:03:09.260Z,100360.88
2023-05-14T18:05:37.291Z,100349.88
2023-05-14T18:08:04.587Z,100343.88
2023-05-14T18:10:31.817Z,100345.88
2023-05-14T18:12:59.299Z,100358.91
2023-05-14T18:15:27.561Z,100356.63
2023-05-14T18:17:54.921Z,100361.03
2023-05-14T18:20:22.214Z,100357.75
2023-05-14T18:22:50.816Z,100356.34
2023-05-14T18:25:18.164Z,100355.47
2023-05-14T18:27:45.707Z,100352.16
2023-05-14T18:30:17.001Z,100352.28
2023-05-14T18:32:45.174Z,100348.22
2023-05-14T18:35:13.680Z,100351.78
2023-05-14T18:37:41.219Z,100356.38
2023-05-14T18:40:09.143Z,100354.91
2023-05-14T18:42:36.428Z,100359.41
2023-05-14T18:45:04.574Z,100357.94
2023-05-14T18:47:33.130Z,100363.34
2023-05-14T18:50:02.183Z,100365.28
2023-05-14T18:52:29.886Z,100362.00
2023-05-14T18:54:57.178Z,100363.06
2023-05-14T18:57:25.341Z,100371.16
2023-05-14T18:59:52.647Z,100380.81
2023-05-14T19:02:19.903Z,100381.78
2023-05-14T19:07:17.175Z,100375.09
2023-05-14T19:09:44.282Z,100377.03
2023-05-14T19:12:11.428Z,100378.84
2023-05-14T19:14:38.516Z,100378.13
2023-05-14T19:17:05.996Z,100379.25
2023-05-14T19:19:33.098Z,100374.22
2023-05-14T19:22:00.526Z,100369.13
2023-05-14T19:24:27.637Z,100367.56
2023-05-14T19:26:54.722Z,100372.91
2023-05-14T19:29:21.942Z,100367.91
2023-05-14T19:31:49.644Z,100355.97
2023-05-14T19:34:16.835Z,100356.84
2023-05-14T19:36:44.017Z,100356.09
2023-05-14T19:39:11.297Z,100353.66
2023-05-14T19:41:38.712Z,100349.53
2023-05-14T19:44:05.845Z,100349.78
2023-05-14T19:46:33.154Z,100356.81
2023-05-14T19:49:00.650Z,100353.41
2023-05-14T19:51:27.756Z,100342.13
2023-05-14T19:53:54.999Z,100341.34
2023-05-14T19:56:23.193Z,100336.34
2023-05-14T19:58:51.452Z,100329.72
2023-05-14T20:01:19.487Z,100335.06
2023-05-14T20:03:47.151Z,100328.28
2023-05-14T20:06:14.718Z,100321.44
2023-05-14T20:08:41.879Z,100323.16
2023-05-14T20:11:09.021Z,100325.00
2023-05-14T20:13:36.964Z,100324.41
2023-05-14T20:16:04.189Z,100321.22
2023-05-14T20:18:31.434Z,100321.22
2023-05-14T20:21:01.446Z,100320.66
2023-05-14T20:23:28.618Z,100320.09
2023-05-14T20:25:55.921Z,100322.59
2023-05-14T20:28:23.002Z,100312.97
2023-05-14T20:30:50.110Z,100315.66
2023-05-14T20:33:17.315Z,100308.72
2023-05-14T20:35:44.614Z,100319.16
2023-05-14T20:38:13.012Z,100305.28
2023-05-14T20:40:40.387Z,100303.72
2023-05-14T20:43:07.596Z,100301.38
2023-05-14T20:45:34.706Z,100297.22
2023-05-14T20:48:01.999Z,100305.41
2023-05-14T20:50:29.204Z,100294.25
2023-05-14T20:52:56.393Z,100288.22
2023-05-14T20:55:23.608Z,100297.03
2023-05-14T20:57:51.160Z,100292.88
2023-05-14T21:00:18.773Z,100298.09
2023-05-14T21:02:46.691Z,100279.22
2023-05-14T21:05:14.291Z,100289.66
2023-05-14T21:07:41.362Z,100281.03
2023-05-14T21:10:09.323Z,100274.97
2023-05-14T21:12:36.500Z,100278.56
2023-05-14T21:15:03.788Z,100265.09
2023-05-14T21:17:31.214Z,100269.47
2023-05-14T21:19:58.336Z,100267.97
2023-05-14T21:22:25.688Z,100265.28
2023-05-14T21:24:52.809Z,100264.38
2023-05-14T21:27:19.949Z,100257.44
2023-05-14T21:29:48.554Z,100256.53
2023-05-14T21:32:15.813Z,100254.03
2023-05-14T21:34:43.646Z,100243.59
2023-05-14T21:37:10.880Z,100248.81
2023-05-14T21:39:37.968Z,100240.81
2023-05-14T21:42:05.389Z,100242.63
2023-05-14T21:44:32.522Z,100241.56
2023-05-14T21:46:59.858Z,100246.78
2023-05-14T21:49:27.108Z,100245.06
2023-05-14T21:51:54.800Z,100241.78
2023-05-14T21:54:22.065Z,100243.59
2023-05-14T21:56:49.219Z,100236.75
2023-05-14T21:59:16.440Z,100237.69
2023-05-14T22:04:13.663Z,100226.75
2023-05-14T22:06:41.081Z,100220.81
2023-05-14T22:09:11.343Z,100218.00
2023-05-14T22:11:38.471Z,100214.56
2023-05-14T22:14:05.510Z,100212.88
2023-05-14T22:16:33.264Z,100205.97
2023-05-14T22:19:00.410Z,100201.47
2023-05-14T22:21:27.420Z,100200.53
2023-05-14T22:23:54.581Z,100202.22
2023-05-14T22:26:24.371Z,100198.84
2023-05-14T22:28:52.687Z,100195.31
2023-05-14T22:31:19.900Z,100193.78
2023-05-14T22:33:46.954Z,100181.00
2023-05-14T22:36:14.071Z,100184.41
2023-05-14T22:38:43.922Z,100185.38
2023-05-14T22:41:11.155Z,100182.00
2023-05-14T22:43:38.267Z,100179.53
2023-05-14T22:46:05.406Z,100176.06
2023-05-14T22:48:32.503Z,100181.44
2023-05-14T22:50:59.554Z,100171.84
2023-05-14T22:53:26.710Z,100164.94
2023-05-14T22:55:53.786Z,100164.16
2023-05-14T22:58:20.831Z,100161.63
2023-05-14T23:00:48.069Z,100145.28
2023-05-14T23:03:15.095Z,100152.00
2023-05-14T23:05:42.119Z,100151.06
2023-05-14T23:08:09.266Z,100144.06
2023-05-14T23:10:36.242Z,100139.56
2023-05-14T23:13:03.953Z,100126.59
2023-05-14T23:15:31.239Z,100124.75
2023-05-14T23:17:58.490Z,100110.13
2023-05-14T23:20:25.717Z,100116.16
2023-05-14T23:22:54.203Z,100111.03
2023-05-14T23:25:21.323Z,100110.41
2023-05-14T23:27:50.170Z,100102.72
2023-05-14T23:30:17.317Z,100097.38
2023-05-14T23:32:44.410Z,100092.97
2023-05-14T23:35:11.445Z,100089.47
2023-05-14T23:37:42.730Z,100079.94
2023-05-14T23:40:10.135Z,100071.22
2023-05-14T23:42:37.158Z,100074.50
2023-05-14T23:45:05.467Z,100069.19
2023-05-14T23:47:32.772Z,100064.06
2023-05-14T23:49:59.926Z,100063.16
2023-05-14T23:52:27.049Z,100060.66
2023-05-14T23:54:54.357Z,100047.13
2023-05-14T23:57:21.512Z,100056.56
2023-05-14T23:59:48.541Z,100041.81
